createdAt,value
2019-05-01T00:01:54.984Z,76037.56
2019-05-01T00:04:35.018Z,76036.12
2019-05-01T00:07:06.055Z,76047.28
2019-05-01T00:09:35.711Z,76038.19
2019-05-01T00:12:05.215Z,76030.44
2019-05-01T00:14:34.677Z,76029.12
2019-05-01T00:17:04.079Z,76028.80
2019-05-01T00:19:33.563Z,76026.95
2019-05-01T00:22:03.048Z,76026.12
2019-05-01T00:24:32.426Z,76023.70
2019-05-01T00:27:01.907Z,76023.09
2019-05-01T00:29:31.361Z,76021.19
2019-05-01T00:32:13.325Z,76023.73
2019-05-01T00:34:42.796Z,76022.77
2019-05-01T00:37:12.190Z,76024.31
2019-05-01T00:39:41.680Z,76022.61
2019-05-01T00:42:11.070Z,76021.09
2019-05-01T00:44:40.568Z,76018.91
2019-05-01T00:47:10.048Z,76015.47
2019-05-01T00:49:39.509Z,76007.48
2019-05-01T00:52:08.980Z,76001.25
2019-05-01T00:54:39.967Z,76002.29
2019-05-01T00:57:14.024Z,76003.67
2019-05-01T00:59:45.012Z,75997.17
2019-05-01T01:02:22.328Z,75993.58
2019-05-01T01:04:51.815Z,75986.17
2019-05-01T01:07:21.265Z,75978.95
2019-05-01T01:09:50.743Z,75976.11
2019-05-01T01:12:20.208Z,75974.17
2019-05-01T01:14:49.688Z,75970.27
2019-05-01T01:17:19.179Z,75964.53
2019-05-01T01:19:48.645Z,75962.03
2019-05-01T01:22:18.100Z,75959.53
2019-05-01T01:24:47.508Z,75953.93
2019-05-01T01:27:16.961Z,75951.34
2019-05-01T01:29:46.346Z,75947.16
2019-05-01T01:32:15.851Z,75938.65
2019-05-01T01:34:45.313Z,75933.98
2019-05-01T01:37:14.780Z,75932.81
2019-05-01T01:39:44.276Z,75935.43
2019-05-01T01:42:13.884Z,75933.55
2019-05-01T01:44:47.654Z,75944.84
2019-05-01T01:47:17.111Z,75941.48
2019-05-01T01:49:46.513Z,75939.61
2019-05-01T01:52:15.996Z,75933.27
2019-05-01T01:54:45.459Z,75929.53
2019-05-01T01:57:15.050Z,75926.20
2019-05-01T01:59:44.543Z,75925.72
2019-05-01T02:02:18.536Z,75926.56
2019-05-01T02:05:04.875Z,75921.83
2019-05-01T02:07:34.530Z,75919.28
2019-05-01T02:10:04.930Z,75921.63
2019-05-01T02:12:34.395Z,75921.58
2019-05-01T02:15:04.306Z,75921.02
2019-05-01T02:17:33.767Z,75927.66
2019-05-01T02:20:03.760Z,75930.49
2019-05-01T02:22:33.143Z,75921.58
2019-05-01T02:25:02.899Z,75910.19
2019-05-01T02:27:46.248Z,75910.55
2019-05-01T02:30:17.281Z,75889.59
2019-05-01T02:32:47.043Z,75874.81
2019-05-01T02:35:16.540Z,75866.59
2019-05-01T02:37:46.335Z,75862.19
2019-05-01T02:40:41.957Z,75852.42
2019-05-01T02:43:12.807Z,75841.15
2019-05-01T02:45:43.259Z,75837.29
2019-05-01T02:48:13.948Z,75830.39
2019-05-01T02:50:43.636Z,75834.97
2019-05-01T02:53:13.093Z,75834.84
2019-05-01T02:55:44.144Z,75827.95
2019-05-01T02:58:13.596Z,75819.67
2019-05-01T03:00:43.585Z,75816.06
2019-05-01T03:03:12.975Z,75810.08
2019-05-01T03:05:42.463Z,75802.83
2019-05-01T03:08:11.962Z,75798.77
2019-05-01T03:10:41.573Z,75794.68
2019-05-01T03:13:11.029Z,75786.77
2019-05-01T03:15:40.515Z,75781.39
2019-05-01T03:18:23.860Z,75774.81
2019-05-01T03:21:03.673Z,75771.17
2019-05-01T03:23:40.482Z,75766.26
2019-05-01T03:26:09.960Z,75784.44
2019-05-01T03:28:39.497Z,75777.72
2019-05-01T03:31:08.955Z,75779.71
2019-05-01T03:33:38.474Z,75769.56
2019-05-01T03:36:07.878Z,75767.90
2019-05-01T03:38:37.352Z,75760.66
2019-05-01T03:41:06.711Z,75753.95
2019-05-01T03:43:36.059Z,75749.60
2019-05-01T03:46:05.714Z,75749.86
2019-05-01T03:48:35.211Z,75745.17
2019-05-01T03:51:05.012Z,75740.75
2019-05-01T03:53:35.100Z,75740.11
2019-05-01T03:56:04.496Z,75733.03
2019-05-01T03:58:33.978Z,75735.63
2019-05-01T04:01:10.803Z,75730.84
2019-05-01T04:03:41.840Z,75732.66
2019-05-01T04:06:11.303Z,75730.72
2019-05-01T04:08:40.792Z,75730.30
2019-05-01T04:11:10.590Z,75731.20
2019-05-01T04:13:40.429Z,75730.62
2019-05-01T04:16:10.210Z,75733.91
2019-05-01T04:18:40.067Z,75746.01
2019-05-01T04:21:10.031Z,75740.19
2019-05-01T04:23:41.101Z,75735.06
2019-05-01T04:26:10.559Z,75736.90
2019-05-01T04:28:47.286Z,75743.33
2019-05-01T04:31:21.218Z,75751.13
2019-05-01T04:33:54.991Z,75753.51
2019-05-01T04:36:25.977Z,75751.48
2019-05-01T04:38:55.528Z,75750.17
2019-05-01T04:41:24.934Z,75754.99
2019-05-01T04:43:54.393Z,75775.17
2019-05-01T04:46:23.857Z,75780.91
2019-05-01T04:48:53.270Z,75783.89
2019-05-01T04:51:22.888Z,75794.55
2019-05-01T04:53:52.276Z,75799.73
2019-05-01T04:56:21.899Z,75810.84
2019-05-01T04:58:51.429Z,75817.92
2019-05-01T05:01:20.984Z,75831.61
2019-05-01T05:03:50.392Z,75835.13
2019-05-01T05:06:19.852Z,75844.94
2019-05-01T05:08:49.341Z,75864.66
2019-05-01T05:11:23.125Z,75876.46
2019-05-01T05:14:08.698Z,75869.05
2019-05-01T05:16:45.667Z,75867.59
2019-05-01T05:19:15.158Z,75868.69
2019-05-01T05:21:44.657Z,75873.33
2019-05-01T05:24:14.193Z,75880.73
2019-05-01T05:26:43.679Z,75884.28
2019-05-01T05:29:13.136Z,75892.41
2019-05-01T05:31:42.604Z,75899.50
2019-05-01T05:34:12.510Z,75908.20
2019-05-01T05:36:41.903Z,75918.93
2019-05-01T05:39:12.965Z,75928.10
2019-05-01T05:41:42.426Z,75936.84
2019-05-01T05:44:12.273Z,75943.27
2019-05-01T05:46:41.741Z,75951.38
2019-05-01T05:49:11.160Z,75958.08
2019-05-01T05:51:45.138Z,75968.69
2019-05-01T05:54:17.213Z,75977.78
2019-05-01T05:56:48.216Z,75991.09
2019-05-01T05:59:19.186Z,76007.09
2019-05-01T06:01:55.999Z,76016.67
2019-05-01T06:04:26.962Z,76027.63
2019-05-01T06:06:58.699Z,76040.03
2019-05-01T06:09:31.081Z,76052.61
2019-05-01T06:12:04.989Z,76065.06
2019-05-01T06:14:47.425Z,76076.86
2019-05-01T06:17:23.681Z,76088.73
2019-05-01T06:20:00.224Z,76104.23
2019-05-01T06:22:34.084Z,76123.59
2019-05-01T06:25:06.653Z,76141.11
2019-05-01T06:27:36.125Z,76160.09
2019-05-01T06:30:11.045Z,76177.67
2019-05-01T06:32:40.087Z,76198.74
2019-05-01T06:35:09.788Z,76217.95
2019-05-01T06:38:00.210Z,76235.66
2019-05-01T06:40:46.216Z,76251.84
2019-05-01T06:43:27.249Z,76273.70
2019-05-01T06:46:13.847Z,76282.81
2019-05-01T06:48:54.689Z,76297.35
2019-05-01T06:51:35.108Z,76315.22
2019-05-01T06:54:11.180Z,76332.28
2019-05-01T06:56:38.248Z,76348.77
2019-05-01T06:59:07.653Z,76374.59
2019-05-01T07:01:37.120Z,76392.74
2019-05-01T07:04:06.578Z,76412.03
2019-05-01T07:06:36.539Z,76410.33
2019-05-01T07:09:11.785Z,76411.09
2019-05-01T07:11:42.280Z,76430.37
2019-05-01T07:14:15.790Z,76450.48
2019-05-01T07:16:42.201Z,76461.36
2019-05-01T07:19:12.063Z,76472.68
2019-05-01T07:21:41.465Z,76489.52
2019-05-01T07:24:10.965Z,76497.39
2019-05-01T07:26:43.910Z,76511.28
2019-05-01T07:29:25.091Z,76525.64
2019-05-01T07:31:54.556Z,76533.21
2019-05-01T07:34:26.219Z,76538.23
2019-05-01T07:36:55.236Z,76539.09
2019-05-01T07:39:24.742Z,76552.80
2019-05-01T07:41:55.796Z,76570.49
2019-05-01T07:44:30.107Z,76583.70
2019-05-01T07:47:05.346Z,76582.02
2019-05-01T07:49:56.598Z,76583.86
2019-05-01T07:52:26.056Z,76598.83
2019-05-01T07:54:55.703Z,76598.08
2019-05-01T07:57:25.199Z,76613.41
2019-05-01T07:59:58.319Z,76623.84
2019-05-01T08:02:30.831Z,76633.38
2019-05-01T08:04:57.073Z,76652.12
2019-05-01T08:07:27.846Z,76670.80
2019-05-01T08:09:57.733Z,76691.38
2019-05-01T08:12:27.108Z,76698.86
2019-05-01T08:14:56.585Z,76695.40
2019-05-01T08:17:27.664Z,76698.19
2019-05-01T08:19:58.726Z,76707.27
2019-05-01T08:22:32.008Z,76729.48
2019-05-01T08:25:00.935Z,76731.84
2019-05-01T08:27:51.216Z,76740.53
2019-05-01T08:30:20.713Z,76767.66
2019-05-01T08:33:03.913Z,76804.91
2019-05-01T08:35:36.401Z,76804.32
2019-05-01T08:38:04.871Z,76807.17
2019-05-01T08:40:37.039Z,76813.11
2019-05-01T08:43:05.580Z,76824.94
2019-05-01T08:45:42.711Z,76833.46
2019-05-01T08:48:13.797Z,76847.25
2019-05-01T08:50:43.415Z,76874.70
2019-05-01T08:53:12.893Z,76894.27
2019-05-01T08:55:45.167Z,76905.63
2019-05-01T08:58:14.302Z,76928.95
2019-05-01T09:00:44.835Z,76946.22
2019-05-01T09:03:18.576Z,76952.91
2019-05-01T09:05:45.536Z,76974.38
2019-05-01T09:08:15.035Z,77001.14
2019-05-01T09:10:44.433Z,77001.14
2019-05-01T09:13:13.894Z,77007.96
2019-05-01T09:15:43.800Z,77029.38
2019-05-01T09:18:14.545Z,77049.95
2019-05-01T09:20:45.596Z,77044.17
2019-05-01T09:23:16.171Z,77043.52
2019-05-01T09:26:06.762Z,77061.08
2019-05-01T09:28:42.416Z,77060.84
2019-05-01T09:31:13.486Z,77055.50
2019-05-01T09:33:42.964Z,77092.05
2019-05-01T09:36:12.472Z,77125.82
2019-05-01T09:38:41.874Z,77147.88
2019-05-01T09:41:11.340Z,77164.55
2019-05-01T09:43:40.892Z,77167.80
2019-05-01T09:46:10.351Z,77178.81
2019-05-01T09:48:39.837Z,77173.52
2019-05-01T09:51:17.139Z,77190.11
2019-05-01T09:53:48.241Z,77218.82
2019-05-01T09:56:22.228Z,77259.94
2019-05-01T09:58:51.682Z,77258.31
2019-05-01T10:01:24.098Z,77287.48
2019-05-01T10:03:54.684Z,77320.97
2019-05-01T10:06:23.635Z,77289.73
2019-05-01T10:08:53.095Z,77273.27
2019-05-01T10:11:22.601Z,77311.63
2019-05-01T10:13:53.634Z,77329.55
2019-05-01T10:16:23.357Z,77348.99
2019-05-01T10:18:52.837Z,77346.39
2019-05-01T10:21:22.557Z,77330.88
2019-05-01T10:23:53.388Z,77330.88
2019-05-01T10:26:25.461Z,77343.24
2019-05-01T10:29:00.242Z,77409.72
2019-05-01T10:31:31.288Z,77463.14
2019-05-01T10:34:11.552Z,77506.35
2019-05-01T10:36:45.017Z,77495.09
2019-05-01T10:39:16.024Z,77541.02
2019-05-01T10:41:46.329Z,77535.33
2019-05-01T10:44:16.918Z,77524.97
2019-05-01T10:46:46.404Z,77537.92
2019-05-01T10:49:15.803Z,77594.23
2019-05-01T10:51:45.285Z,77634.08
2019-05-01T10:54:14.636Z,77677.23
2019-05-01T10:56:44.060Z,77707.70
2019-05-01T10:59:13.490Z,77760.38
2019-05-01T11:01:50.558Z,77824.25
2019-05-01T11:04:20.022Z,77839.59
2019-05-01T11:06:49.509Z,77793.51
2019-05-01T11:09:19.002Z,77814.75
2019-05-01T11:11:48.416Z,77830.55
2019-05-01T11:14:17.911Z,77809.93
2019-05-01T11:16:47.366Z,77818.92
2019-05-01T11:19:16.853Z,77877.88
2019-05-01T11:21:46.335Z,77929.22
2019-05-01T11:24:15.815Z,77987.69
2019-05-01T11:26:45.414Z,78010.44
2019-05-01T11:29:14.876Z,78005.74
2019-05-01T11:31:45.922Z,78031.48
2019-05-01T11:34:16.916Z,78002.16
2019-05-01T11:36:56.962Z,77985.27
2019-05-01T11:39:31.000Z,77994.64
2019-05-01T11:42:07.974Z,78020.86
2019-05-01T11:44:37.518Z,78047.05
2019-05-01T11:47:06.989Z,78078.97
2019-05-01T11:49:36.487Z,78093.02
2019-05-01T11:52:06.184Z,78133.33
2019-05-01T11:54:35.593Z,78177.03
2019-05-01T11:57:05.054Z,78207.14
2019-05-01T11:59:34.582Z,78202.53
2019-05-01T12:02:04.026Z,78164.00
2019-05-01T12:04:33.470Z,78076.98
2019-05-01T12:07:02.971Z,78079.56
2019-05-01T12:09:32.433Z,78107.55
2019-05-01T12:12:03.489Z,78129.88
2019-05-01T12:14:32.968Z,78189.99
2019-05-01T12:17:09.814Z,78221.39
2019-05-01T12:19:39.446Z,78244.80
2019-05-01T12:22:09.068Z,78257.39
2019-05-01T12:24:38.690Z,78238.84
2019-05-01T12:27:08.183Z,78232.09
2019-05-01T12:29:37.672Z,78221.51
2019-05-01T12:32:07.205Z,78135.58
2019-05-01T12:34:36.694Z,78084.28
2019-05-01T12:37:13.797Z,78033.74
2019-05-01T12:39:43.294Z,78054.72
2019-05-01T12:42:13.486Z,78090.98
2019-05-01T12:44:42.941Z,78133.23
2019-05-01T12:47:14.027Z,78158.34
2019-05-01T12:49:45.096Z,78149.09
2019-05-01T12:52:16.154Z,78162.17
2019-05-01T12:55:03.846Z,78159.84
2019-05-01T12:57:33.291Z,78179.93
2019-05-01T13:00:08.976Z,78240.81
2019-05-01T13:02:33.921Z,78233.27
2019-05-01T13:05:03.804Z,78314.28
2019-05-01T13:07:33.264Z,78346.60
2019-05-01T13:10:03.125Z,78406.70
2019-05-01T13:12:32.594Z,78348.00
2019-05-01T13:15:02.088Z,78246.61
2019-05-01T13:17:31.570Z,78175.13
2019-05-01T13:20:02.922Z,78169.00
2019-05-01T13:22:32.390Z,78176.84
2019-05-01T13:25:01.905Z,78043.69
2019-05-01T13:27:32.948Z,77941.40
2019-05-01T13:30:03.982Z,77852.84
2019-05-01T13:32:46.988Z,77828.63
2019-05-01T13:35:16.460Z,77804.95
2019-05-01T13:39:01.797Z,77801.20
2019-05-01T13:41:31.203Z,77871.02
2019-05-01T13:44:00.663Z,78274.80
2019-05-01T13:46:30.153Z,78700.97
2019-05-01T13:48:59.657Z,79030.78
2019-05-01T13:51:29.247Z,79232.11
2019-05-01T13:53:58.770Z,79150.02
2019-05-01T13:56:28.232Z,79277.31
2019-05-01T13:58:57.799Z,79394.04
2019-05-01T14:01:27.399Z,79478.55
2019-05-01T14:03:56.867Z,79624.72
2019-05-01T14:06:26.359Z,79780.66
2019-05-01T14:08:55.847Z,79681.51
2019-05-01T14:11:25.235Z,79649.45
2019-05-01T14:13:54.725Z,79583.13
2019-05-01T14:16:24.222Z,79562.59
2019-05-01T14:19:13.052Z,79561.09
2019-05-01T14:21:55.897Z,79448.20
2019-05-01T14:24:32.669Z,79369.67
2019-05-01T14:27:02.179Z,79379.08
2019-05-01T14:29:31.641Z,79217.58
2019-05-01T14:32:01.105Z,79246.84
2019-05-01T14:34:32.129Z,79279.58
2019-05-01T14:37:01.600Z,79282.17
2019-05-01T14:39:31.071Z,79308.02
2019-05-01T14:42:00.560Z,79370.05
2019-05-01T14:44:36.489Z,79334.84
2019-05-01T14:47:01.252Z,78998.32
2019-05-01T14:49:30.734Z,78971.66
2019-05-01T14:52:00.219Z,79028.36
2019-05-01T14:54:29.754Z,79007.07
2019-05-01T14:56:59.270Z,78988.74
2019-05-01T14:59:28.734Z,78976.34
2019-05-01T15:01:58.251Z,78839.35
2019-05-01T15:04:27.783Z,78638.34
2019-05-01T15:06:57.197Z,78471.28
2019-05-01T15:09:26.652Z,78514.94
2019-05-01T15:11:56.135Z,78525.20
2019-05-01T15:14:27.119Z,78509.46
2019-05-01T15:17:04.263Z,78511.77
2019-05-01T15:19:35.311Z,78470.95
2019-05-01T15:22:04.778Z,78496.48
2019-05-01T15:24:34.284Z,78508.06
2019-05-01T15:27:03.676Z,78469.69
2019-05-01T15:29:33.148Z,78416.53
2019-05-01T15:32:02.649Z,78238.32
2019-05-01T15:34:32.107Z,78062.27
2019-05-01T15:37:01.565Z,77963.53
2019-05-01T15:39:32.644Z,77934.88
2019-05-01T15:42:06.425Z,77959.55
2019-05-01T15:44:37.435Z,77981.17
2019-05-01T15:47:06.906Z,77916.36
2019-05-01T15:49:36.406Z,77883.00
2019-05-01T15:52:05.914Z,77872.84
2019-05-01T15:54:35.423Z,77884.27
2019-05-01T15:57:05.000Z,77862.82
2019-05-01T15:59:34.483Z,77837.72
2019-05-01T16:02:04.156Z,77830.77
2019-05-01T16:04:33.614Z,77873.23
2019-05-01T16:07:03.051Z,77915.44
2019-05-01T16:09:32.518Z,77856.75
2019-05-01T16:12:15.567Z,77764.06
2019-05-01T16:14:45.947Z,77675.03
2019-05-01T16:17:15.416Z,77591.98
2019-05-01T16:19:44.925Z,77525.28
2019-05-01T16:22:14.396Z,77491.30
2019-05-01T16:24:54.939Z,77463.41
2019-05-01T16:27:24.386Z,77436.00
2019-05-01T16:29:53.787Z,77426.51
2019-05-01T16:32:23.216Z,77405.91
2019-05-01T16:34:52.685Z,77373.37
2019-05-01T16:37:22.199Z,77344.30
2019-05-01T16:40:02.275Z,77334.11
2019-05-01T16:42:33.297Z,77324.59
2019-05-01T16:45:02.795Z,77330.64
2019-05-01T16:47:32.261Z,77314.61
2019-05-01T16:50:01.732Z,77289.13
2019-05-01T16:52:32.790Z,77278.57
2019-05-01T16:55:02.254Z,77279.22
2019-05-01T16:57:31.723Z,77269.25
2019-05-01T17:00:01.317Z,77267.61
2019-05-01T17:02:38.096Z,77259.13
2019-05-01T17:05:12.110Z,77241.06
2019-05-01T17:07:52.161Z,77235.23
2019-05-01T17:10:23.240Z,77230.95
2019-05-01T17:12:54.272Z,77231.66
2019-05-01T17:15:31.356Z,77233.38
2019-05-01T17:18:00.830Z,77218.73
2019-05-01T17:20:30.733Z,77192.11
2019-05-01T17:23:00.166Z,77191.83
2019-05-01T17:25:29.701Z,77187.86
2019-05-01T17:28:02.925Z,77193.20
2019-05-01T17:30:45.094Z,77184.88
2019-05-01T17:34:32.183Z,77171.94
2019-05-01T17:37:02.052Z,77155.78
2019-05-01T17:39:31.544Z,77156.53
2019-05-01T17:42:01.948Z,77143.73
2019-05-01T17:44:32.102Z,77132.60
2019-05-01T17:47:01.581Z,77134.65
2019-05-01T17:49:30.958Z,77132.05
2019-05-01T17:52:00.452Z,77122.08
2019-05-01T17:54:30.014Z,77116.16
2019-05-01T17:56:59.648Z,77109.41
2019-05-01T17:59:29.141Z,77096.62
2019-05-01T18:02:18.641Z,77084.42
2019-05-01T18:04:49.701Z,77072.77
2019-05-01T18:07:19.170Z,77045.42
2019-05-01T18:09:51.452Z,77034.75
2019-05-01T18:12:23.500Z,77028.26
2019-05-01T18:14:51.381Z,77024.17
2019-05-01T18:17:20.859Z,77013.98
2019-05-01T18:19:50.336Z,76999.05
2019-05-01T18:22:39.628Z,76993.99
2019-05-01T18:25:22.676Z,76983.73
2019-05-01T18:28:08.555Z,76977.41
2019-05-01T18:30:39.619Z,76972.91
2019-05-01T18:33:09.089Z,76962.35
2019-05-01T18:35:39.008Z,76952.19
2019-05-01T18:38:11.499Z,76945.17
2019-05-01T18:40:51.780Z,76939.17
2019-05-01T18:43:21.268Z,76938.59
2019-05-01T18:45:52.757Z,76920.26
2019-05-01T18:48:22.439Z,76902.10
2019-05-01T18:50:54.625Z,76894.86
2019-05-01T18:53:23.396Z,76889.05
2019-05-01T18:55:52.885Z,76872.48
2019-05-01T18:58:22.376Z,76864.24
2019-05-01T19:00:51.865Z,76853.80
2019-05-01T19:03:22.548Z,76845.17
2019-05-01T19:05:52.240Z,76843.17
2019-05-01T19:08:21.860Z,76837.91
2019-05-01T19:10:51.375Z,76831.34
2019-05-01T19:13:21.247Z,76828.73
2019-05-01T19:15:50.803Z,76829.71
2019-05-01T19:18:20.367Z,76826.80
2019-05-01T19:20:59.369Z,76816.91
2019-05-01T19:23:22.355Z,76816.63
2019-05-01T19:25:56.319Z,76807.18
2019-05-01T19:28:23.744Z,76793.56
2019-05-01T19:30:53.208Z,76790.84
2019-05-01T19:33:22.686Z,76792.95
2019-05-01T19:35:52.188Z,76802.88
2019-05-01T19:38:22.246Z,76795.13
2019-05-01T19:40:51.751Z,76800.41
2019-05-01T19:43:21.245Z,76793.56
2019-05-01T19:45:50.787Z,76795.45
2019-05-01T19:48:20.333Z,76805.59
2019-05-01T19:50:49.896Z,76799.63
2019-05-01T19:53:19.419Z,76786.47
2019-05-01T19:55:49.054Z,76788.16
2019-05-01T19:58:18.552Z,76782.94
2019-05-01T20:00:54.130Z,76782.65
2019-05-01T20:03:23.790Z,76776.62
2019-05-01T20:05:53.278Z,76772.77
2019-05-01T20:08:22.859Z,76771.95
2019-05-01T20:10:52.376Z,76767.16
2019-05-01T20:13:21.841Z,76772.60
2019-05-01T20:15:51.346Z,76781.23
2019-05-01T20:18:20.821Z,76780.90
2019-05-01T20:20:50.294Z,76784.10
2019-05-01T20:23:19.819Z,76787.50
2019-05-01T20:25:50.970Z,76791.34
2019-05-01T20:28:22.362Z,76794.36
2019-05-01T20:30:51.794Z,76788.84
2019-05-01T20:33:21.275Z,76785.69
2019-05-01T20:35:50.819Z,76777.49
2019-05-01T20:38:20.317Z,76775.11
2019-05-01T20:40:49.809Z,76765.95
2019-05-01T20:43:19.267Z,76759.80
2019-05-01T20:45:49.497Z,76755.06
2019-05-01T20:48:23.467Z,76756.38
2019-05-01T20:50:51.237Z,76769.36
2019-05-01T20:53:20.749Z,76768.88
2019-05-01T20:55:51.797Z,76759.19
2019-05-01T20:58:21.957Z,76754.09
2019-05-01T21:00:54.766Z,76747.61
2019-05-01T21:03:24.407Z,76751.12
2019-05-01T21:05:58.494Z,76755.25
2019-05-01T21:08:39.123Z,76759.58
2019-05-01T21:11:11.130Z,76757.27
2019-05-01T21:13:39.562Z,76747.96
2019-05-01T21:16:09.058Z,76755.06
2019-05-01T21:18:38.575Z,76762.10
2019-05-01T21:21:08.056Z,76758.53
2019-05-01T21:23:37.578Z,76750.99
2019-05-01T21:26:07.090Z,76747.10
2019-05-01T21:28:36.674Z,76746.90
2019-05-01T21:31:06.067Z,76746.77
2019-05-01T21:33:35.551Z,76747.84
2019-05-01T21:36:08.471Z,76748.16
2019-05-01T21:38:36.229Z,76748.08
2019-05-01T21:41:05.729Z,76741.30
2019-05-01T21:43:36.986Z,76739.81
2019-05-01T21:46:06.344Z,76737.83
2019-05-01T21:48:35.858Z,76725.55
2019-05-01T21:51:07.387Z,76722.30
2019-05-01T21:53:37.289Z,76716.45
2019-05-01T21:56:07.955Z,76705.40
2019-05-01T21:58:37.372Z,76699.61
2019-05-01T22:01:07.441Z,76699.24
2019-05-01T22:03:36.930Z,76691.66
2019-05-01T22:06:06.390Z,76678.55
2019-05-01T22:08:39.301Z,76671.41
2019-05-01T22:11:07.192Z,76668.31
2019-05-01T22:13:36.661Z,76674.02
2019-05-01T22:16:07.630Z,76669.15
2019-05-01T22:18:38.695Z,76675.42
2019-05-01T22:21:09.724Z,76673.59
2019-05-01T22:23:57.128Z,76669.11
2019-05-01T22:26:28.210Z,76662.61
2019-05-01T22:28:59.270Z,76654.68
2019-05-01T22:31:46.652Z,76650.17
2019-05-01T22:34:17.695Z,76648.08
2019-05-01T22:36:47.152Z,76644.02
2019-05-01T22:39:16.646Z,76641.60
2019-05-01T22:41:46.112Z,76638.03
2019-05-01T22:44:18.039Z,76640.89
2019-05-01T22:46:46.654Z,76644.52
2019-05-01T22:49:16.068Z,76638.94
2019-05-01T22:51:45.453Z,76638.45
2019-05-01T22:54:14.867Z,76645.86
2019-05-01T22:56:44.339Z,76647.55
2019-05-01T22:59:13.808Z,76644.31
2019-05-01T23:01:49.182Z,76640.59
2019-05-01T23:04:17.220Z,76641.33
2019-05-01T23:06:47.293Z,76641.59
2019-05-01T23:09:18.375Z,76635.25
2019-05-01T23:11:48.046Z,76628.41
2019-05-01T23:14:17.525Z,76621.06
2019-05-01T23:16:58.668Z,76619.83
2019-05-01T23:19:29.655Z,76611.67
2019-05-01T23:21:59.209Z,76612.96
2019-05-01T23:24:28.702Z,76616.33
2019-05-01T23:26:58.170Z,76620.41
2019-05-01T23:29:27.650Z,76621.23
2019-05-01T23:31:57.570Z,76624.59
2019-05-01T23:34:27.931Z,76621.88
2019-05-01T23:36:57.569Z,76624.95
2019-05-01T23:39:27.018Z,76623.95
2019-05-01T23:41:56.407Z,76607.48
2019-05-01T23:44:25.902Z,76605.60
2019-05-01T23:46:55.335Z,76603.94
2019-05-01T23:49:24.818Z,76599.02
2019-05-01T23:51:54.306Z,76594.42
2019-05-01T23:54:23.724Z,76590.33
2019-05-01T23:56:53.118Z,76594.42
2019-05-01T23:59:22.608Z,76592.77
